Time;durP1;ratioP1;P1;durP2;ratioP2;P2;SDS_P1;SDS_P2;PMS_P1;PMS_P2;Temp;Humidity;BMP_temperature;BMP_pressure;BME280_temperature;BME280_humidity;BME280_pressure;Samples;Min_cycle;Max_cycle;Signal;HPM_P1;HPM_P2
2021/12/03 00:01:35;;;;;;;20.35;13.90;;;0.60;99.90;;;;;;5035149;28;20018;-85
2021/12/03 00:04:02;;;;;;;18.17;12.10;;;0.60;99.90;;;;;;5035545;28;20096;-87
2021/12/03 00:06:28;;;;;;;19.60;12.95;;;0.60;99.90;;;;;;5036190;28;20040;-85
2021/12/03 00:08:54;;;;;;;20.52;13.50;;;0.70;99.90;;;;;;5022562;28;20410;-85
2021/12/03 00:11:20;;;;;;;22.33;13.60;;;0.70;99.90;;;;;;5035995;28;20018;-85
2021/12/03 00:13:45;;;;;;;18.73;12.35;;;0.70;99.90;;;;;;5035524;28;20045;-85
2021/12/03 00:16:13;;;;;;;19.80;13.85;;;0.70;99.90;;;;;;5036321;28;20100;-84
2021/12/03 00:18:39;;;;;;;20.15;13.95;;;0.70;99.90;;;;;;5039163;28;20390;-85
2021/12/03 00:21:08;;;;;;;14.73;10.57;;;0.70;99.90;;;;;;5042067;28;20036;-86
2021/12/03 00:23:34;;;;;;;19.33;11.85;;;0.80;99.90;;;;;;5045599;28;20025;-84
2021/12/03 00:26:03;;;;;;;18.25;12.98;;;0.80;99.90;;;;;;5041000;28;20036;-86
2021/12/03 00:28:30;;;;;;;21.80;13.45;;;0.80;99.90;;;;;;5036078;28;20482;-87
2021/12/03 00:30:57;;;;;;;18.88;13.82;;;0.80;99.90;;;;;;5035850;28;20030;-88
2021/12/03 00:33:25;;;;;;;16.98;11.18;;;0.80;99.90;;;;;;5017684;28;20049;-84
2021/12/03 00:35:52;;;;;;;18.77;12.25;;;0.80;99.90;;;;;;5041028;28;20041;-84
2021/12/03 00:38:19;;;;;;;21.40;13.33;;;0.90;99.90;;;;;;5025623;28;20168;-84
2021/12/03 00:40:45;;;;;;;18.52;13.43;;;0.90;99.90;;;;;;5041990;28;20270;-84
2021/12/03 00:43:11;;;;;;;19.38;13.18;;;0.90;99.90;;;;;;5038471;28;20022;-86
2021/12/03 00:45:37;;;;;;;21.77;12.40;;;0.90;99.90;;;;;;5035333;28;20101;-85
2021/12/03 00:48:04;;;;;;;20.90;13.70;;;0.90;99.90;;;;;;5035058;28;20056;-83
2021/12/03 00:50:31;;;;;;;20.17;11.75;;;0.90;99.90;;;;;;5036213;28;20017;-83
2021/12/03 00:52:57;;;;;;;18.35;13.40;;;1.00;99.90;;;;;;5017824;28;20389;-86
2021/12/03 00:55:25;;;;;;;23.15;12.80;;;1.00;99.90;;;;;;5034850;28;20025;-84
2021/12/03 00:57:51;;;;;;;18.10;11.20;;;1.00;99.90;;;;;;5034253;28;20029;-84
2021/12/03 01:00:25;;;;;;;23.00;12.30;;;1.00;99.90;;;;;;5015537;28;20040;-85
2021/12/03 01:02:53;;;;;;;15.43;11.00;;;1.00;99.90;;;;;;5016875;28;20024;-85
2021/12/03 01:05:19;;;;;;;17.83;12.20;;;1.00;99.90;;;;;;5034680;28;20030;-83
2021/12/03 01:07:45;;;;;;;16.75;12.57;;;1.10;99.90;;;;;;5019242;28;20032;-87
2021/12/03 01:10:11;;;;;;;16.02;10.90;;;1.10;99.90;;;;;;5036076;28;20025;-83
2021/12/03 01:12:37;;;;;;;15.80;11.85;;;1.10;99.90;;;;;;5017839;28;20030;-84
2021/12/03 01:15:09;;;;;;;16.60;11.95;;;1.10;99.90;;;;;;5016128;28;20041;-84
2021/12/03 01:17:35;;;;;;;17.33;11.40;;;1.10;99.90;;;;;;5034337;28;20040;-83
2021/12/03 01:20:04;;;;;;;19.50;12.70;;;1.10;99.90;;;;;;5034926;28;20036;-82
2021/12/03 01:22:30;;;;;;;16.40;12.60;;;1.10;99.90;;;;;;5025988;28;20033;-83
2021/12/03 01:24:56;;;;;;;16.67;12.63;;;1.10;99.90;;;;;;5043516;28;20025;-81
2021/12/03 01:27:22;;;;;;;17.52;12.98;;;1.10;99.90;;;;;;5016838;28;20064;-80
2021/12/03 01:29:48;;;;;;;17.00;11.70;;;1.10;99.90;;;;;;5016008;28;20432;-83
2021/12/03 01:32:14;;;;;;;16.65;12.82;;;1.10;99.90;;;;;;5015091;28;20037;-81
2021/12/03 01:34:39;;;;;;;18.55;13.10;;;1.20;99.90;;;;;;5033178;28;20021;-83
2021/12/03 01:37:06;;;;;;;18.05;13.23;;;1.10;99.90;;;;;;5033179;28;20017;-83
2021/12/03 01:39:32;;;;;;;18.13;12.43;;;1.10;99.90;;;;;;5033349;28;20105;-81
2021/12/03 01:41:58;;;;;;;22.50;12.88;;;1.10;99.90;;;;;;5033244;28;20048;-84
2021/12/03 01:44:24;;;;;;;20.05;12.32;;;1.10;99.90;;;;;;5033511;28;20017;-82
2021/12/03 01:46:50;;;;;;;19.80;13.68;;;1.10;99.90;;;;;;5033140;28;20017;-83
2021/12/03 01:49:15;;;;;;;16.65;12.23;;;1.10;99.90;;;;;;5033044;28;20025;-84
2021/12/03 01:51:42;;;;;;;18.95;12.38;;;1.10;99.90;;;;;;5033406;28;20133;-85
2021/12/03 01:54:08;;;;;;;17.75;11.73;;;1.10;99.90;;;;;;5033205;28;20395;-83
2021/12/03 01:56:34;;;;;;;20.70;12.85;;;1.00;99.90;;;;;;5033312;28;20088;-85
2021/12/03 01:58:59;;;;;;;17.48;12.80;;;1.00;99.90;;;;;;5034229;28;20175;-85
2021/12/03 02:01:27;;;;;;;19.55;13.73;;;1.00;99.90;;;;;;5037755;28;20029;-83
2021/12/03 02:03:56;;;;;;;19.55;14.15;;;1.00;99.90;;;;;;5018771;28;20449;-85
2021/12/03 02:06:23;;;;;;;16.08;12.10;;;1.00;99.90;;;;;;5034705;28;20025;-88
2021/12/03 02:08:49;;;;;;;19.08;12.73;;;1.00;99.90;;;;;;5035063;28;20104;-86
2021/12/03 02:11:17;;;;;;;18.92;13.52;;;1.00;99.90;;;;;;5036972;28;20072;-89
2021/12/03 02:13:44;;;;;;;21.27;12.68;;;1.00;99.90;;;;;;5039857;28;20048;-89
2021/12/03 02:16:12;;;;;;;15.48;12.40;;;1.10;99.90;;;;;;5035946;28;20099;-86
2021/12/03 02:18:38;;;;;;;16.08;12.13;;;1.20;99.90;;;;;;5038767;28;20041;-86
2021/12/03 02:21:06;;;;;;;15.85;12.65;;;1.20;99.90;;;;;;5037621;28;20018;-86
2021/12/03 02:23:32;;;;;;;;;;;1.20;99.90;;;;;;5034612;28;20102;-87
2021/12/03 02:25:58;;;;;;;12.15;9.45;;;1.30;99.90;;;;;;5033923;28;19909;-86
2021/12/03 02:28:27;;;;;;;19.90;12.73;;;1.20;99.90;;;;;;5033250;28;20026;-87
2021/12/03 02:30:53;;;;;;;17.77;12.63;;;1.20;99.90;;;;;;5018298;28;20022;-88
2021/12/03 02:33:20;;;;;;;19.35;13.73;;;1.20;99.90;;;;;;5035775;28;20033;-88
2021/12/03 02:35:46;;;;;;;16.13;10.73;;;1.20;99.90;;;;;;5019383;28;20026;-90
2021/12/03 02:38:15;;;;;;;15.43;12.20;;;1.20;99.90;;;;;;5039223;28;20030;-87
2021/12/03 02:40:42;;;;;;;16.52;12.55;;;1.20;99.90;;;;;;5037780;28;20021;-84
2021/12/03 02:43:08;;;;;;;18.13;13.73;;;1.20;99.90;;;;;;5036549;28;20026;-86
2021/12/03 02:45:34;;;;;;;18.67;12.48;;;1.20;99.90;;;;;;5034679;28;20072;-84
2021/12/03 02:48:02;;;;;;;17.13;13.20;;;1.20;99.90;;;;;;5035235;28;20100;-84
2021/12/03 02:50:28;;;;;;;19.25;11.90;;;1.20;99.90;;;;;;5041283;28;20022;-84
2021/12/03 02:52:54;;;;;;;18.42;12.38;;;1.20;99.90;;;;;;5039182;28;20473;-86
2021/12/03 02:55:22;;;;;;;17.98;13.35;;;1.30;99.90;;;;;;5037145;28;20470;-87
2021/12/03 02:57:48;;;;;;;16.40;12.30;;;1.30;99.90;;;;;;5019100;28;20105;-85
2021/12/03 03:00:17;;;;;;;22.08;13.45;;;1.30;99.90;;;;;;5038350;28;20495;-83
2021/12/03 03:02:44;;;;;;;18.40;11.00;;;1.30;99.90;;;;;;5045480;28;20445;-87
2021/12/03 03:05:16;;;;;;;16.15;10.77;;;1.30;99.90;;;;;;5012328;28;20452;-89
2021/12/03 03:07:42;;;;;;;15.43;11.43;;;1.40;99.90;;;;;;5015727;28;20395;-88
2021/12/03 03:10:11;;;;;;;18.65;13.30;;;1.40;99.90;;;;;;5017075;28;20515;-88
2021/12/03 03:12:38;;;;;;;17.08;11.02;;;1.40;99.90;;;;;;5021089;28;20037;-90
2021/12/03 03:15:05;;;;;;;17.67;12.95;;;1.40;99.90;;;;;;5021759;28;20050;-87
2021/12/03 03:17:31;;;;;;;;;;;1.50;99.90;;;;;;5043123;28;20034;-87
2021/12/03 03:19:59;;;;;;;15.85;11.07;;;1.50;99.90;;;;;;5041042;28;20433;-86
2021/12/03 03:22:25;;;;;;;17.83;14.20;;;1.50;99.90;;;;;;5039091;28;20033;-87
2021/12/03 03:25:12;;;;;;;20.63;12.15;;;1.50;99.90;;;;;;5037713;28;20025;-85
2021/12/03 03:27:39;;;;;;;18.13;12.73;;;1.50;99.90;;;;;;5037980;28;20109;-84
2021/12/03 03:30:08;;;;;;;22.83;14.75;;;1.50;99.90;;;;;;5037843;28;20104;-85
2021/12/03 03:32:34;;;;;;;18.10;13.52;;;1.50;99.90;;;;;;5024627;28;20487;-84
2021/12/03 03:35:00;;;;;;;23.98;14.55;;;1.60;99.90;;;;;;5029252;28;20068;-84
2021/12/03 03:37:26;;;;;;;20.13;14.32;;;1.60;99.90;;;;;;5041724;28;20059;-83
2021/12/03 03:39:52;;;;;;;21.30;15.40;;;1.60;99.90;;;;;;5038669;28;20018;-84
2021/12/03 03:42:18;;;;;;;21.70;13.82;;;1.60;99.90;;;;;;5019682;28;20047;-85
2021/12/03 03:44:44;;;;;;;15.93;11.70;;;1.60;99.90;;;;;;5041855;28;20022;-85
2021/12/03 03:47:10;;;;;;;17.50;12.55;;;1.60;99.90;;;;;;5025064;28;20091;-83
2021/12/03 03:49:36;;;;;;;20.13;13.88;;;1.50;99.90;;;;;;5023842;28;20059;-84
2021/12/03 03:52:04;;;;;;;23.85;16.02;;;1.50;99.90;;;;;;5039677;28;20029;-85
2021/12/03 03:54:30;;;;;;;19.30;14.45;;;1.50;99.90;;;;;;5023662;28;20079;-83
2021/12/03 03:56:56;;;;;;;18.58;13.45;;;1.50;99.90;;;;;;5021373;28;20095;-85
2021/12/03 03:59:22;;;;;;;21.45;13.63;;;1.40;99.90;;;;;;5037204;28;20029;-84
2021/12/03 04:01:50;;;;;;;21.20;14.13;;;1.50;99.90;;;;;;5037377;28;20081;-85
2021/12/03 04:04:16;;;;;;;23.67;15.30;;;1.50;99.90;;;;;;5038504;28;20029;-87
2021/12/03 04:06:42;;;;;;;18.48;13.07;;;1.50;99.90;;;;;;5038389;28;20021;-87
2021/12/03 04:09:09;;;;;;;18.15;13.05;;;1.50;99.90;;;;;;5038744;28;20056;-88
2021/12/03 04:11:35;;;;;;;19.25;13.82;;;1.50;99.90;;;;;;5037796;28;20475;-87
2021/12/03 04:14:01;;;;;;;21.27;14.10;;;1.60;99.90;;;;;;5038684;28;20374;-86
2021/12/03 04:16:28;;;;;;;19.42;14.43;;;1.60;99.90;;;;;;5022996;28;20029;-87
2021/12/03 04:18:54;;;;;;;21.00;14.00;;;1.60;99.90;;;;;;5017034;28;20180;-87
2021/12/03 04:21:21;;;;;;;19.60;13.77;;;1.60;99.90;;;;;;5048731;28;20044;-89
2021/12/03 04:23:47;;;;;;;20.52;12.43;;;1.60;99.90;;;;;;5043541;28;20025;-89
2021/12/03 04:26:13;;;;;;;17.08;11.10;;;1.70;99.90;;;;;;5038905;28;20029;-84
2021/12/03 04:28:39;;;;;;;15.90;11.80;;;1.70;99.90;;;;;;5040141;28;20393;-88
2021/12/03 04:31:05;;;;;;;19.02;12.90;;;1.80;99.90;;;;;;5022549;28;20112;-85
2021/12/03 04:33:31;;;;;;;17.77;12.68;;;1.80;99.90;;;;;;5039661;28;20025;-87
2021/12/03 04:35:57;;;;;;;22.40;14.60;;;1.70;99.90;;;;;;5040478;28;20029;-89
2021/12/03 04:38:23;;;;;;;19.48;12.02;;;1.80;99.90;;;;;;5040732;28;20030;-85
2021/12/03 04:40:48;;;;;;;18.60;13.02;;;1.80;99.90;;;;;;5041135;28;20049;-84
2021/12/03 04:43:15;;;;;;;23.20;12.75;;;1.80;99.90;;;;;;5045769;28;20040;-85
2021/12/03 04:45:41;;;;;;;20.30;13.77;;;1.80;99.90;;;;;;5048173;28;20049;-90
2021/12/03 04:48:07;;;;;;;20.10;14.45;;;1.70;99.90;;;;;;5046710;28;20418;-90
2021/12/03 04:50:37;;;;;;;19.65;12.48;;;1.80;99.90;;;;;;5039152;28;20091;-89
2021/12/03 04:53:09;;;;;;;21.80;15.02;;;1.70;99.90;;;;;;5029019;28;20033;-92
2021/12/03 04:55:38;;;;;;;22.27;14.00;;;1.70;99.90;;;;;;5034854;28;20047;-92
2021/12/03 04:58:05;;;;;;;20.73;14.15;;;1.70;99.90;;;;;;5043567;28;20055;-92
2021/12/03 05:00:38;;;;;;;21.45;14.93;;;1.70;99.90;;;;;;5045474;28;20124;-87
2021/12/03 05:03:05;;;;;;;17.33;12.85;;;1.70;99.90;;;;;;5026633;28;20037;-83
2021/12/03 05:05:32;;;;;;;20.95;13.68;;;1.70;99.90;;;;;;5039412;28;20041;-85
2021/12/03 05:08:07;;;;;;;22.75;14.40;;;1.60;99.90;;;;;;5041488;28;20036;-85
2021/12/03 05:10:35;;;;;;;23.48;15.23;;;1.60;99.90;;;;;;5035744;28;20116;-87
2021/12/03 05:13:16;;;;;;;23.33;16.02;;;1.60;99.90;;;;;;5018134;28;20033;-85
2021/12/03 05:15:44;;;;;;;20.02;14.15;;;1.60;99.90;;;;;;5015795;28;20088;-87
2021/12/03 05:18:12;;;;;;;19.73;14.30;;;1.60;99.90;;;;;;5015783;28;20034;-84
2021/12/03 05:20:39;;;;;;;21.02;13.82;;;1.70;99.90;;;;;;5015624;28;20054;-84
2021/12/03 05:23:05;;;;;;;18.10;14.73;;;1.70;99.90;;;;;;5016183;28;20487;-86
2021/12/03 05:25:31;;;;;;;25.02;14.60;;;1.70;99.90;;;;;;5016321;28;20076;-87
2021/12/03 05:27:57;;;;;;;20.25;14.00;;;1.70;99.90;;;;;;5017230;28;20045;-87
2021/12/03 05:30:23;;;;;;;21.30;14.45;;;1.80;99.90;;;;;;5015640;28;20029;-88
2021/12/03 05:32:49;;;;;;;25.10;14.27;;;1.80;99.90;;;;;;5016239;28;20173;-88
2021/12/03 05:35:15;;;;;;;20.00;13.27;;;1.80;99.90;;;;;;5036831;28;20022;-90
2021/12/03 05:37:41;;;;;;;22.30;14.45;;;1.80;99.90;;;;;;5018386;28;20036;-86
2021/12/03 05:40:08;;;;;;;25.67;14.07;;;1.80;99.90;;;;;;5019638;28;20018;-88
2021/12/03 05:42:34;;;;;;;21.00;14.10;;;1.80;99.90;;;;;;5043950;28;20089;-85
2021/12/03 05:45:00;;;;;;;22.23;15.77;;;1.80;99.90;;;;;;5033986;28;20026;-85
2021/12/03 05:47:26;;;;;;;19.20;14.55;;;1.70;99.90;;;;;;5030042;28;20529;-88
2021/12/03 05:49:52;;;;;;;21.67;13.52;;;1.70;99.90;;;;;;5020789;28;20483;-86
2021/12/03 05:52:18;;;;;;;21.05;13.00;;;1.70;99.90;;;;;;5017807;28;20387;-88
2021/12/03 05:54:45;;;;;;;22.33;14.70;;;1.70;99.90;;;;;;5017613;28;20060;-88
2021/12/03 05:57:11;;;;;;;23.13;14.73;;;1.70;99.90;;;;;;5016284;28;20018;-87
2021/12/03 05:59:37;;;;;;;19.75;15.02;;;1.70;99.90;;;;;;5016636;28;20295;-85
2021/12/03 06:02:03;;;;;;;19.58;14.40;;;1.70;99.90;;;;;;5014215;28;20026;-86
2021/12/03 06:04:29;;;;;;;22.50;13.05;;;1.70;99.90;;;;;;5014854;28;20018;-87
2021/12/03 06:06:56;;;;;;;17.92;12.05;;;1.70;99.90;;;;;;5014138;28;20053;-85
2021/12/03 06:09:22;;;;;;;21.00;14.05;;;1.70;99.90;;;;;;5016084;28;20030;-84
2021/12/03 06:11:48;;;;;;;22.00;15.32;;;1.80;99.90;;;;;;5022563;28;20030;-86
2021/12/03 06:14:14;;;;;;;21.05;16.25;;;1.80;99.90;;;;;;5024684;28;20042;-85
2021/12/03 06:16:40;;;;;;;22.33;14.18;;;1.70;99.90;;;;;;5036902;28;20100;-86
2021/12/03 06:19:05;;;;;;;23.88;15.63;;;1.70;99.90;;;;;;5027088;28;20044;-86
2021/12/03 06:21:31;;;;;;;19.30;13.38;;;1.80;99.90;;;;;;5040875;28;20048;-88
2021/12/03 06:23:57;;;;;;;21.90;14.00;;;1.80;99.90;;;;;;5036468;28;20397;-87
2021/12/03 06:26:23;;;;;;;23.08;15.95;;;1.80;99.90;;;;;;5036062;28;20021;-87
2021/12/03 06:28:49;;;;;;;17.38;14.60;;;1.80;99.90;;;;;;5034830;28;20029;-87
2021/12/03 06:31:15;;;;;;;20.35;14.70;;;1.90;99.90;;;;;;5035093;28;20056;-89
2021/12/03 06:33:41;;;;;;;18.80;14.35;;;1.90;99.90;;;;;;5034271;28;20029;-87
2021/12/03 06:36:07;;;;;;;22.23;14.45;;;2.00;99.90;;;;;;5034944;28;20083;-87
2021/12/03 06:38:33;;;;;;;21.13;15.00;;;2.00;99.90;;;;;;5036510;28;20037;-88
2021/12/03 06:41:00;;;;;;;22.25;16.40;;;2.10;99.90;;;;;;5038152;28;20704;-89
2021/12/03 06:43:26;;;;;;;22.83;15.98;;;2.20;99.90;;;;;;5044839;28;20025;-89
2021/12/03 06:45:52;;;;;;;18.30;15.23;;;2.30;99.90;;;;;;5046878;28;20052;-86
2021/12/03 06:48:18;;;;;;;19.55;13.23;;;2.30;99.90;;;;;;5054131;28;20483;-85
2021/12/03 06:50:45;;;;;;;17.88;14.77;;;2.40;99.90;;;;;;5027322;28;20038;-90
2021/12/03 06:53:14;;;;;;;17.38;13.52;;;2.50;99.90;;;;;;5002737;28;20057;-90
2021/12/03 06:55:57;;;;;;;16.63;11.95;;;2.50;99.90;;;;;;5000010;28;20027;-88
2021/12/03 06:58:23;;;;;;;19.38;12.93;;;2.60;99.90;;;;;;5006174;28;20051;-83
2021/12/03 07:00:53;;;;;;;15.38;11.38;;;2.60;99.90;;;;;;4995829;28;20131;-86
2021/12/03 07:03:19;;;;;;;16.00;12.77;;;2.70;99.90;;;;;;4995509;28;20089;-82
2021/12/03 07:05:46;;;;;;;15.07;11.52;;;2.70;99.90;;;;;;4994536;28;20066;-83
2021/12/03 07:08:12;;;;;;;17.20;12.25;;;2.80;99.70;;;;;;4994925;28;20049;-84
2021/12/03 07:10:37;;;;;;;19.40;12.77;;;2.80;99.50;;;;;;4994556;28;20038;-82
2021/12/03 07:13:03;;;;;;;16.65;10.75;;;2.90;99.30;;;;;;4994683;28;20089;-84
2021/12/03 07:15:29;;;;;;;20.05;13.02;;;2.90;99.00;;;;;;4995213;28;20619;-83
2021/12/03 07:17:55;;;;;;;16.48;13.13;;;3.00;98.80;;;;;;4996436;28;20078;-82
2021/12/03 07:20:23;;;;;;;16.50;12.98;;;3.00;98.60;;;;;;4995472;28;20030;-83
2021/12/03 07:22:50;;;;;;;20.65;12.80;;;3.00;98.50;;;;;;5015718;28;20029;-85
2021/12/03 07:25:16;;;;;;;18.37;13.50;;;3.00;98.50;;;;;;5017049;28;20040;-84
2021/12/03 07:27:42;;;;;;;22.93;13.67;;;3.00;98.50;;;;;;5016935;28;20034;-83
2021/12/03 07:30:11;;;;;;;17.85;12.60;;;2.90;98.40;;;;;;5016099;28;20026;-83
2021/12/03 07:32:39;;;;;;;17.30;12.00;;;2.90;98.40;;;;;;5016180;28;20022;-83
2021/12/03 07:35:05;;;;;;;;;;;2.90;98.40;;;;;;5016874;28;20400;-83
2021/12/03 07:37:31;;;;;;;23.25;12.55;;;2.90;98.70;;;;;;5016991;28;19917;-82
2021/12/03 07:40:00;;;;;;;18.13;12.48;;;2.90;98.60;;;;;;5022209;28;20391;-82
2021/12/03 07:42:26;;;;;;;18.67;12.63;;;2.90;98.40;;;;;;5035523;28;20025;-82
2021/12/03 07:44:52;;;;;;;13.75;10.55;;;2.90;98.40;;;;;;5036488;28;20026;-81
2021/12/03 07:47:18;;;;;;;17.30;11.68;;;3.00;98.40;;;;;;5035580;28;20021;-83
2021/12/03 07:49:45;;;;;;;18.00;12.85;;;3.00;98.20;;;;;;5018399;28;20105;-84
2021/12/03 07:52:11;;;;;;;17.70;12.50;;;2.90;98.20;;;;;;5018922;28;20436;-85
2021/12/03 07:54:37;;;;;;;23.83;13.75;;;2.90;98.20;;;;;;5045016;28;20025;-82
2021/12/03 07:57:03;;;;;;;19.00;13.73;;;2.90;98.20;;;;;;5043996;28;20175;-83
2021/12/03 07:59:29;;;;;;;17.90;12.02;;;2.90;98.00;;;;;;5035929;28;20033;-82
2021/12/03 08:01:55;;;;;;;19.15;13.30;;;3.00;98.10;;;;;;5035608;28;20037;-84
2021/12/03 08:04:20;;;;;;;18.90;13.15;;;3.00;98.00;;;;;;5035019;28;20035;-84
2021/12/03 08:06:52;;;;;;;18.15;11.68;;;2.90;97.90;;;;;;5034863;28;20115;-84
2021/12/03 08:09:18;;;;;;;18.88;14.30;;;2.90;97.80;;;;;;5034736;28;20092;-82
2021/12/03 08:11:44;;;;;;;19.20;13.45;;;2.90;97.90;;;;;;5034906;28;20025;-83
2021/12/03 08:14:10;;;;;;;19.98;12.50;;;2.90;98.00;;;;;;5013137;28;20038;-82
2021/12/03 08:16:36;;;;;;;17.60;12.63;;;3.00;97.90;;;;;;5014803;28;20052;-84
2021/12/03 08:19:01;;;;;;;19.85;14.65;;;3.00;97.80;;;;;;5018427;28;20104;-83
2021/12/03 08:21:29;;;;;;;20.77;12.93;;;3.00;97.80;;;;;;5019343;28;20022;-84
2021/12/03 08:23:55;;;;;;;24.77;17.10;;;3.00;97.70;;;;;;5015251;28;20073;-83
2021/12/03 08:26:21;;;;;;;22.60;14.10;;;3.00;97.70;;;;;;5014766;28;20026;-83
2021/12/03 08:28:47;;;;;;;16.58;13.77;;;3.10;97.60;;;;;;5014638;28;20030;-83
2021/12/03 08:31:15;;;;;;;17.20;12.35;;;3.10;97.30;;;;;;5014806;28;20056;-84
2021/12/03 08:33:41;;;;;;;;;;;3.20;97.30;;;;;;5014908;28;20079;-83
2021/12/03 08:36:07;;;;;;;19.35;12.80;;;3.30;97.40;;;;;;5014227;28;20415;-83
2021/12/03 08:38:33;;;;;;;15.27;11.57;;;3.30;97.00;;;;;;5014268;28;20160;-83
2021/12/03 08:40:58;;;;;;;18.40;11.18;;;3.30;97.20;;;;;;5014483;28;20060;-83
2021/12/03 08:43:25;;;;;;;15.52;12.70;;;3.50;96.90;;;;;;5014614;28;20026;-83
2021/12/03 08:45:54;;;;;;;16.23;11.85;;;3.50;96.40;;;;;;5013402;28;20022;-84
2021/12/03 08:48:22;;;;;;;18.00;10.95;;;3.70;96.40;;;;;;5014050;28;20057;-82
2021/12/03 08:50:52;;;;;;;17.17;11.60;;;3.70;96.10;;;;;;5013960;28;20124;-82
2021/12/03 08:54:49;;;;;;;15.48;12.00;;;3.70;96.00;;;;;;5012928;28;20038;-82
2021/12/03 08:56:07;;;;;;;11.93;10.25;;;3.70;95.60;;;;;;5011239;28;20041;-83
2021/12/03 08:58:32;;;;;;;15.05;11.38;;;3.60;95.20;;;;;;5014852;28;20034;-83
2021/12/03 09:00:58;;;;;;;13.73;10.55;;;3.60;95.10;;;;;;5016249;28;20022;-84
2021/12/03 09:03:26;;;;;;;13.65;11.30;;;3.50;95.10;;;;;;5019020;28;20037;-81
2021/12/03 09:05:52;;;;;;;17.40;12.50;;;3.60;95.20;;;;;;5018790;28;20022;-83
2021/12/03 09:08:18;;;;;;;16.98;11.18;;;3.60;95.00;;;;;;5020433;28;20072;-83
2021/12/03 09:10:44;;;;;;;15.73;11.10;;;3.60;94.90;;;;;;5016817;28;20021;-83
2021/12/03 09:13:09;;;;;;;18.00;11.77;;;3.70;94.90;;;;;;5016750;28;20030;-82
2021/12/03 09:15:42;;;;;;;13.55;9.77;;;3.70;94.80;;;;;;5034783;28;20090;-84
2021/12/03 09:23:30;;;;;;;15.30;11.07;;;3.60;94.40;;;;;;5035526;28;20025;-82
2021/12/03 09:26:05;;;;;;;13.55;9.10;;;3.60;94.30;;;;;;5035228;28;20024;-83
2021/12/03 09:28:39;;;;;;;18.50;10.90;;;3.50;94.20;;;;;;5033787;28;20022;-83
2021/12/03 09:31:05;;;;;;;15.95;11.00;;;3.50;94.40;;;;;;5016298;28;20922;-84
2021/12/03 09:33:34;;;;;;;13.35;10.90;;;3.60;94.50;;;;;;5033469;28;20115;-83
2021/12/03 09:36:04;;;;;;;13.68;9.80;;;3.60;94.40;;;;;;5033299;28;20017;-84
2021/12/03 09:38:34;;;;;;;15.73;10.57;;;3.60;94.40;;;;;;5033326;28;20041;-83
2021/12/03 09:41:09;;;;;;;15.38;9.68;;;3.60;94.40;;;;;;5033673;28;20022;-84
2021/12/03 09:43:39;;;;;;;14.45;10.18;;;3.60;94.40;;;;;;5033146;28;20026;-84
2021/12/03 09:46:13;;;;;;;12.45;10.25;;;3.60;94.40;;;;;;5015465;28;20483;-84
2021/12/03 09:51:08;;;;;;;15.70;11.02;;;3.50;94.30;;;;;;5034783;28;20031;-82
2021/12/03 09:55:59;;;;;;;15.48;10.82;;;3.50;94.50;;;;;;5033294;28;20040;-84
2021/12/03 10:01:23;;;;;;;17.25;12.32;;;3.50;94.60;;;;;;5033504;28;20409;-83
2021/12/03 10:20:39;;;;;;;17.73;11.55;;;3.60;94.40;;;;;;5015583;28;20080;-82
2021/12/03 10:29:27;;;;;;;15.52;11.80;;;3.70;94.60;;;;;;4987049;28;20124;-83
2021/12/03 10:45:43;;;;;;;13.45;9.25;;;3.50;94.60;;;;;;5018167;28;20032;-82
2021/12/03 10:48:33;;;;;;;18.70;10.57;;;3.40;94.50;;;;;;5016642;28;20030;-82
2021/12/03 10:51:19;;;;;;;14.75;10.02;;;3.40;94.50;;;;;;5016587;28;20018;-81
2021/12/03 10:53:56;;;;;;;14.65;10.02;;;3.40;94.60;;;;;;5018335;28;20105;-82
2021/12/03 10:56:41;;;;;;;13.80;9.85;;;3.40;94.60;;;;;;5000837;28;20383;-82
2021/12/03 11:08:23;;;;;;;16.33;11.63;;;3.50;94.80;;;;;;5016537;28;20471;-83
2021/12/03 11:27:32;;;;;;;13.98;9.32;;;3.30;94.60;;;;;;5036149;28;20107;-82
2021/12/03 11:30:05;;;;;;;12.55;9.85;;;3.30;94.70;;;;;;5035983;28;20099;-84
2021/12/03 11:38:40;;;;;;;14.88;9.68;;;3.30;94.80;;;;;;5041825;28;20060;-83
2021/12/03 12:10:49;;;;;;;13.95;8.32;;;3.20;95.30;;;;;;5039820;28;20047;-84
2021/12/03 13:18:00;;;;;;;18.30;10.75;;;2.90;95.80;;;;;;5034870;28;20067;-82
2021/12/03 13:23:23;;;;;;;13.70;10.35;;;2.80;95.80;;;;;;5033721;28;20029;-84
2021/12/03 13:44:15;;;;;;;16.83;10.38;;;2.80;96.10;;;;;;5013529;28;20033;-83
2021/12/03 14:45:58;;;;;;;22.83;14.57;;;1.60;99.90;;;;;;5032844;28;20033;-83
2021/12/03 14:56:18;;;;;;;27.73;18.27;;;1.10;99.90;;;;;;5032449;28;20104;-83
2021/12/03 14:58:50;;;;;;;26.25;18.92;;;1.10;99.90;;;;;;5032214;28;20057;-84
2021/12/03 15:01:42;;;;;;;29.08;19.70;;;1.10;99.90;;;;;;5032745;28;20121;-83
2021/12/03 15:07:06;;;;;;;34.28;18.92;;;1.10;99.90;;;;;;5033085;28;20028;-84
2021/12/03 15:09:37;;;;;;;29.38;18.98;;;1.10;99.90;;;;;;5036123;28;20025;-85
2021/12/03 15:31:16;;;;;;;36.72;22.73;;;1.00;99.90;;;;;;5039766;28;20036;-85
2021/12/03 15:33:51;;;;;;;33.45;19.80;;;1.10;99.90;;;;;;5037102;28;20486;-87
2021/12/03 15:37:07;;;;;;;34.00;19.65;;;1.10;99.90;;;;;;5019287;28;20029;-87
2021/12/03 15:39:22;;;;;;;29.23;19.15;;;1.10;99.90;;;;;;5037393;28;20147;-85
2021/12/03 16:03:44;;;;;;;38.65;24.58;;;1.00;99.90;;;;;;5037439;28;20044;-84
2021/12/03 16:09:12;;;;;;;37.95;23.15;;;1.00;99.90;;;;;;5036596;28;20056;-83
2021/12/03 16:14:46;;;;;;;38.63;25.95;;;1.00;99.90;;;;;;5040543;28;20119;-82
2021/12/03 16:44:11;;;;;;;52.03;32.53;;;1.40;99.90;;;;;;5034969;28;20419;-83
2021/12/03 16:46:36;;;;;;;52.42;33.63;;;1.40;99.90;;;;;;5032005;28;20057;-86
2021/12/03 16:51:50;;;;;;;48.20;31.00;;;1.50;99.90;;;;;;5035633;28;20039;-83
2021/12/03 16:55:01;;;;;;;53.33;33.42;;;1.60;99.90;;;;;;5036340;28;20024;-85
2021/12/03 16:57:08;;;;;;;51.47;32.28;;;1.60;99.90;;;;;;5024944;28;20107;-88
2021/12/03 16:59:34;;;;;;;45.50;30.70;;;1.60;99.90;;;;;;5035053;28;20033;-85
2021/12/03 17:02:05;;;;;;;46.33;29.48;;;1.60;99.90;;;;;;5019327;28;20407;-85
2021/12/03 17:18:27;;;;;;;40.53;27.10;;;1.60;99.90;;;;;;4998034;28;20107;-83
2021/12/03 17:23:36;;;;;;;32.25;23.30;;;1.50;99.90;;;;;;5034924;28;20028;-83
2021/12/03 17:31:55;;;;;;;36.55;24.85;;;1.60;99.90;;;;;;5034673;28;20068;-84
2021/12/03 17:58:13;;;;;;;28.25;18.13;;;1.80;99.90;;;;;;5033831;28;20091;-83
2021/12/03 18:00:54;;;;;;;25.85;17.73;;;1.80;99.90;;;;;;5034847;28;20028;-84
2021/12/03 18:08:25;;;;;;;29.55;19.20;;;1.80;99.90;;;;;;5037438;28;20044;-83
2021/12/03 18:11:05;;;;;;;25.67;18.90;;;1.80;99.90;;;;;;5033762;28;20483;-85
2021/12/03 18:51:31;;;;;;;20.55;13.43;;;1.60;99.90;;;;;;4971182;28;20042;-86
2021/12/03 18:56:49;;;;;;;16.52;11.90;;;1.60;99.90;;;;;;4969132;28;20046;-86
2021/12/03 18:59:15;;;;;;;14.02;11.45;;;1.60;99.90;;;;;;4968564;28;20078;-85
2021/12/03 19:01:42;;;;;;;13.05;10.27;;;1.70;99.90;;;;;;4974104;28;20042;-85
2021/12/03 19:04:33;;;;;;;16.73;11.25;;;1.70;99.90;;;;;;4974582;28;20428;-86
2021/12/03 19:07:04;;;;;;;16.83;12.45;;;1.70;99.90;;;;;;4973689;28;20122;-84
2021/12/03 19:09:43;;;;;;;19.00;12.85;;;1.60;99.90;;;;;;4976287;28;20586;-86
2021/12/03 19:12:12;;;;;;;19.65;12.63;;;1.60;99.90;;;;;;4976176;28;20089;-86
2021/12/03 19:14:42;;;;;;;25.23;16.40;;;1.60;99.90;;;;;;4974101;28;20051;-87
2021/12/03 19:17:10;;;;;;;13.27;9.63;;;1.60;99.90;;;;;;5016842;28;20029;-88
2021/12/03 19:19:41;;;;;;;28.98;16.00;;;1.60;99.90;;;;;;5021396;28;20034;-88
2021/12/03 19:22:07;;;;;;;14.32;10.30;;;1.50;99.90;;;;;;5037376;28;20089;-89
2021/12/03 19:24:34;;;;;;;14.82;11.40;;;1.50;99.90;;;;;;5037111;28;20113;-82
2021/12/03 19:27:00;;;;;;;17.42;11.43;;;1.50;99.90;;;;;;5035106;28;20029;-81
2021/12/03 19:29:26;;;;;;;12.00;9.57;;;1.50;99.90;;;;;;5035974;28;20528;-82
2021/12/03 19:31:52;;;;;;;11.30;8.30;;;1.60;99.90;;;;;;5036782;28;20026;-82
2021/12/03 19:34:25;;;;;;;12.50;9.93;;;1.50;99.90;;;;;;5036606;28;20022;-85
2021/12/03 19:36:54;;;;;;;9.05;7.50;;;1.50;99.90;;;;;;5036241;28;20018;-84
2021/12/03 19:39:23;;;;;;;11.02;8.82;;;1.50;99.90;;;;;;5017746;28;20151;-84
2021/12/03 19:44:18;;;;;;;11.20;7.72;;;1.50;99.90;;;;;;5035334;28;20032;-83
2021/12/03 19:46:48;;;;;;;12.20;9.27;;;1.50;99.90;;;;;;5018361;28;20406;-82
2021/12/03 19:49:20;;;;;;;13.05;8.02;;;1.50;99.90;;;;;;5035280;28;20124;-81
2021/12/03 19:51:54;;;;;;;9.73;7.90;;;1.50;99.90;;;;;;5035280;28;20021;-83
2021/12/03 19:54:21;;;;;;;10.63;7.93;;;1.50;99.90;;;;;;5034096;28;20103;-82
2021/12/03 19:56:47;;;;;;;11.35;7.20;;;1.60;99.90;;;;;;5035483;28;20100;-82
2021/12/03 19:59:14;;;;;;;12.35;8.45;;;1.60;99.90;;;;;;5027079;28;20042;-90
2021/12/03 20:01:41;;;;;;;10.55;8.85;;;1.60;99.90;;;;;;5018732;28;20036;-84